Halsteren, Netherlands
Current Conditions -  °F | °C
As of 1:03 AM on Monday 24 Nov 2014 (Local Time) from EHWO Reporting Station
Rain Showers Rain Showers  
Wind Chill: 45°   Ceiling: 4800
Heat Index: 48°   Visibility: 6mi
Dew Point: 48°   Wind: 7mph
Humidity: 100%   Direction: 330°NNW
Pressure: 30.06"   Gusts: NA
Location:  51.53°N, 4.27°E
Report Text: EHWO 240003Z AUTO 33006KT 9999 -SHRA FEW005 BKN048 OVC054 09/09 Q1018 BLU
Loading
Personal Weather Stations






























Interactive Weather Map New forecast layout! Learn more

10-Day Weather Forecast

Advertisements
Track Severe Weather on mobile